Time;durP1;ratioP1;P1;durP2;ratioP2;P2;SDS_P1;SDS_P2;PMS_P1;PMS_P2;Temp;Humidity;BMP_temperature;BMP_pressure;BME280_temperature;BME280_humidity;BME280_pressure;Samples;Min_cycle;Max_cycle;Signal;HPM_P1;HPM_P2
2022/04/10 00:01:49;;;;;;;0.20;0.20;;;;;;;19.01;39.17;101403.00;5120827;27;20048;-27
2022/04/10 00:04:15;;;;;;;0.20;0.20;;;;;;;19.00;39.19;101393.88;5122509;27;20082;-27
2022/04/10 00:06:41;;;;;;;0.20;0.20;;;;;;;19.00;39.33;101404.94;5125429;27;20129;-27
2022/04/10 00:09:07;;;;;;;0.20;0.20;;;;;;;19.01;39.28;101405.75;5122977;27;20043;-26
2022/04/10 00:11:32;;;;;;;0.20;0.20;;;;;;;19.01;39.14;101408.50;5120241;27;20047;-26
2022/04/10 00:13:58;;;;;;;0.20;0.20;;;;;;;19.00;39.37;101402.16;5124755;27;20485;-27
2022/04/10 00:16:24;;;;;;;0.20;0.20;;;;;;;19.00;39.33;101404.94;5126291;27;20043;-26
2022/04/10 00:18:51;;;;;;;0.20;0.20;;;;;;;19.00;39.04;101401.34;5129505;27;20143;-27
2022/04/10 00:21:17;;;;;;;0.20;0.20;;;;;;;19.00;39.02;101406.88;5125563;27;20036;-27
2022/04/10 00:23:43;;;;;;;0.20;0.20;;;;;;;19.00;39.29;101407.69;5102035;27;20042;-27
2022/04/10 00:26:11;;;;;;;0.20;0.20;;;;;;;18.99;39.13;101406.00;5124139;27;20048;-26
2022/04/10 00:28:36;;;;;;;0.20;0.20;;;;;;;19.00;39.29;101410.44;5124188;27;20070;-27
2022/04/10 00:31:02;;;;;;;0.20;0.20;;;;;;;18.99;39.13;101402.41;5130323;27;20034;-27
2022/04/10 00:33:28;;;;;;;0.20;0.20;;;;;;;18.99;39.20;101410.69;5124365;27;20478;-27
2022/04/10 00:35:53;;;;;;;0.20;0.20;;;;;;;18.99;39.19;101408.75;5121378;27;20065;-27
2022/04/10 00:38:20;;;;;;;0.20;0.20;;;;;;;18.99;39.08;101406.00;5124536;27;20476;-27
2022/04/10 00:40:46;;;;;;;0.20;0.20;;;;;;;18.99;39.19;101399.66;5128890;27;20134;-27
2022/04/10 00:43:11;;;;;;;0.20;0.20;;;;;;;18.98;39.14;101404.34;5124993;27;20043;-27
2022/04/10 00:45:37;;;;;;;0.20;0.20;;;;;;;18.96;38.97;101403.81;5118487;27;20371;-26
2022/04/10 00:48:03;;;;;;;0.20;0.20;;;;;;;18.97;39.01;101410.97;5125321;27;20046;-27
2022/04/10 00:50:28;;;;;;;0.20;0.20;;;;;;;18.98;39.11;101409.03;5126405;27;20054;-27
2022/04/10 00:52:57;;;;;;;0.20;0.20;;;;;;;18.99;39.00;101413.47;5106669;27;20502;-27
2022/04/10 00:55:23;;;;;;;0.20;0.20;;;;;;;18.98;39.16;101400.75;5123533;27;20096;-27
2022/04/10 00:57:49;;;;;;;0.20;0.20;;;;;;;18.98;39.04;101412.63;5125199;27;20386;-27
2022/04/10 01:00:15;;;;;;;0.20;0.20;;;;;;;18.98;39.19;101409.88;5103480;28;20047;-27
2022/04/10 01:02:41;;;;;;;0.20;0.20;;;;;;;18.98;39.02;101409.88;5128185;27;20075;-27
2022/04/10 01:05:07;;;;;;;0.20;0.20;;;;;;;18.99;38.98;101410.69;5087494;27;20040;-27
2022/04/10 01:07:33;;;;;;;0.20;0.20;;;;;;;18.98;38.91;101409.03;5121242;27;20056;-27
2022/04/10 01:09:59;;;;;;;0.20;0.20;;;;;;;18.97;39.13;101408.22;5122462;27;20730;-27
2022/04/10 01:12:24;;;;;;;0.20;0.20;;;;;;;18.99;39.31;101410.69;5104997;27;20130;-27
2022/04/10 01:14:51;;;;;;;0.20;0.20;;;;;;;18.98;39.16;101414.56;5111957;27;20043;-27
2022/04/10 01:17:17;;;;;;;0.20;0.20;;;;;;;18.96;39.20;101412.09;5103512;28;20502;-27
2022/04/10 01:19:43;;;;;;;0.20;0.20;;;;;;;18.97;38.92;101410.97;5123409;27;20518;-27
2022/04/10 01:22:10;;;;;;;0.20;0.20;;;;;;;18.97;39.21;101412.91;5110535;27;20084;-27
2022/04/10 01:24:37;;;;;;;0.20;0.20;;;;;;;18.96;38.97;101408.50;5123665;27;20073;-27
2022/04/10 01:27:03;;;;;;;0.20;0.20;;;;;;;18.96;39.13;101408.50;5120323;27;20125;-27
2022/04/10 01:29:29;;;;;;;0.20;0.20;;;;;;;18.97;39.01;101416.50;5126425;27;20039;-27
2022/04/10 01:31:55;;;;;;;0.20;0.20;;;;;;;18.94;38.93;101405.97;5124735;27;20478;-27
2022/04/10 01:34:21;;;;;;;0.20;0.20;;;;;;;18.96;39.24;101408.50;5124635;27;20522;-27
2022/04/10 01:36:46;;;;;;;0.20;0.20;;;;;;;18.96;39.15;101414.00;5112379;27;20070;-27
2022/04/10 01:39:15;;;;;;;0.20;0.20;;;;;;;18.96;39.07;101408.50;5125658;27;20200;-27
2022/04/10 01:41:41;;;;;;;0.20;0.20;;;;;;;18.94;39.27;101403.22;5106789;28;20035;-27
2022/04/10 01:44:08;;;;;;;0.20;0.20;;;;;;;18.96;39.06;101414.84;5106798;27;20150;-26
2022/04/10 01:46:35;;;;;;;0.20;0.20;;;;;;;18.95;38.95;101413.16;5120484;27;20142;-26
2022/04/10 01:49:01;;;;;;;0.20;0.20;;;;;;;18.95;39.10;101409.56;5100461;27;20198;-27
2022/04/10 01:51:27;;;;;;;0.20;0.20;;;;;;;18.95;38.96;101407.63;5110466;27;20070;-27
2022/04/10 01:53:54;;;;;;;0.20;0.20;;;;;;;18.96;39.27;101411.25;5105144;27;20040;-27
2022/04/10 01:56:20;;;;;;;0.20;0.20;;;;;;;18.95;39.15;101413.16;5120793;27;20079;-27
2022/04/10 01:58:46;;;;;;;0.20;0.20;;;;;;;18.94;39.15;101405.97;5121114;27;20131;-26
2022/04/10 02:01:14;;;;;;;0.20;0.20;;;;;;;18.95;39.16;101412.31;5109763;27;20059;-26
2022/04/10 02:03:40;;;;;;;0.20;0.20;;;;;;;18.95;39.07;101409.56;5124589;27;20062;-26
2022/04/10 02:06:08;;;;;;;0.20;0.20;;;;;;;18.93;38.76;101415.38;5128898;27;20075;-26
2022/04/10 02:08:37;;;;;;;0.20;0.20;;;;;;;18.94;38.99;101405.16;5111986;27;20080;-27
2022/04/10 02:11:20;;;;;;;0.20;0.20;;;;;;;18.95;39.24;101420.59;5104376;27;20438;-27
2022/04/10 02:13:46;;;;;;;0.20;0.20;;;;;;;18.95;39.10;101412.31;5105623;27;20134;-27
2022/04/10 02:16:14;;;;;;;0.20;0.20;;;;;;;18.94;39.25;101421.72;5126958;27;20130;-26
2022/04/10 02:18:40;;;;;;;0.20;0.20;;;;;;;18.94;38.89;101410.69;5104378;27;20044;-27
2022/04/10 02:21:05;;;;;;;0.20;0.20;;;;;;;18.94;38.92;101422.53;5123161;27;20124;-26
2022/04/10 02:23:31;;;;;;;0.20;0.20;;;;;;;18.94;39.10;101416.19;5119113;27;20170;-27
2022/04/10 02:25:57;;;;;;;0.20;0.20;;;;;;;18.94;39.05;101424.47;5120146;27;20035;-26
2022/04/10 02:28:23;;;;;;;0.20;0.20;;;;;;;18.93;39.24;101426.41;5113306;28;20382;-26
2022/04/10 02:30:48;;;;;;;0.20;0.20;;;;;;;18.95;39.16;101423.38;5129424;27;20070;-26
2022/04/10 02:33:14;;;;;;;0.20;0.20;;;;;;;18.92;39.11;101422.00;5105088;28;20075;-27
2022/04/10 02:35:41;;;;;;;0.20;0.20;;;;;;;18.93;39.16;101429.16;5120131;27;20066;-27
2022/04/10 02:38:07;;;;;;;0.20;0.20;;;;;;;18.93;39.16;101431.09;5109205;27;20100;-27
2022/04/10 02:40:32;;;;;;;0.20;0.20;;;;;;;18.93;39.20;101420.06;5119516;27;20039;-26
2022/04/10 02:42:58;;;;;;;0.20;0.20;;;;;;;18.93;38.97;101437.44;5121557;27;20047;-27
2022/04/10 02:45:24;;;;;;;0.20;0.20;;;;;;;18.94;38.97;101432.75;5124990;27;20103;-26
2022/04/10 02:47:50;;;;;;;0.20;0.20;;;;;;;18.93;39.18;101429.16;5107525;27;20425;-26
2022/04/10 02:50:16;;;;;;;0.20;0.20;;;;;;;18.92;38.83;101434.97;5127778;27;20049;-26
2022/04/10 02:52:42;;;;;;;0.20;0.20;;;;;;;18.92;38.94;101441.31;5125760;27;20100;-26
2022/04/10 02:55:08;;;;;;;0.20;0.20;;;;;;;18.91;38.82;101442.41;5119010;27;20073;-26
2022/04/10 02:57:35;;;;;;;0.20;0.20;;;;;;;18.91;39.11;101430.53;5126140;27;20482;-26
2022/04/10 03:00:01;;;;;;;0.20;0.20;;;;;;;18.92;39.11;101437.72;5126172;27;20215;-26
2022/04/10 03:02:26;;;;;;;0.20;0.20;;;;;;;18.91;38.95;101445.19;5124196;27;20550;-26
2022/04/10 03:04:52;;;;;;;0.20;0.20;;;;;;;18.90;38.78;101437.16;5126824;27;20046;-26
2022/04/10 03:07:18;;;;;;;0.20;0.20;;;;;;;18.92;38.92;101449.59;5120631;27;20070;-26
2022/04/10 03:09:43;;;;;;;0.20;0.20;;;;;;;18.89;38.94;101444.59;5105706;27;20039;-26
2022/04/10 03:12:09;;;;;;;0.20;0.20;;;;;;;18.91;39.03;101447.06;5121692;27;20040;-26
2022/04/10 03:14:35;;;;;;;0.20;0.20;;;;;;;18.92;38.93;101452.34;5125626;27;20047;-26
2022/04/10 03:17:01;;;;;;;0.20;0.20;;;;;;;18.92;39.01;101451.53;5124888;27;20084;-26
2022/04/10 03:19:27;;;;;;;0.20;0.20;;;;;;;18.91;38.88;101450.69;5126222;27;20043;-26
2022/04/10 03:21:53;;;;;;;0.20;0.20;;;;;;;18.90;38.97;101451.78;5122751;27;20181;-26
2022/04/10 03:24:18;;;;;;;0.20;0.20;;;;;;;18.89;38.88;101452.88;5121823;27;20043;-26
2022/04/10 03:26:44;;;;;;;0.20;0.20;;;;;;;18.89;39.20;101458.41;5123063;27;20039;-26
2022/04/10 03:29:11;;;;;;;0.20;0.20;;;;;;;18.91;39.18;101458.13;5120144;27;20504;-26
2022/04/10 03:31:37;;;;;;;0.20;0.20;;;;;;;18.91;38.83;101463.63;5123433;27;20523;-26
2022/04/10 03:34:03;;;;;;;0.20;0.20;;;;;;;18.89;38.77;101461.16;5122294;27;20130;-26
2022/04/10 03:36:28;;;;;;;0.20;0.20;;;;;;;18.90;38.82;101454.53;5127500;27;20408;-26
2022/04/10 03:38:54;;;;;;;0.20;0.20;;;;;;;18.89;38.89;101455.63;5117404;27;20048;-26
2022/04/10 03:41:20;;;;;;;0.20;0.20;;;;;;;18.90;39.03;101459.22;5124464;27;20316;-26
2022/04/10 03:43:45;;;;;;;0.20;0.20;;;;;;;18.90;39.28;101450.94;5120775;27;20138;-26
2022/04/10 03:46:11;;;;;;;0.20;0.20;;;;;;;18.90;39.04;101454.53;5118314;27;20050;-26
2022/04/10 03:48:37;;;;;;;0.20;0.20;;;;;;;18.89;39.10;101454.81;5127770;27;20059;-26
2022/04/10 03:51:03;;;;;;;0.20;0.20;;;;;;;18.89;39.03;101457.56;5125051;27;20056;-26
2022/04/10 03:53:28;;;;;;;0.20;0.20;;;;;;;18.89;39.09;101463.09;5126476;27;20055;-26
2022/04/10 03:55:54;;;;;;;0.20;0.20;;;;;;;18.89;38.92;101465.84;5105957;28;20442;-26
2022/04/10 03:58:19;;;;;;;0.20;0.20;;;;;;;18.89;39.30;101468.59;5127224;27;20044;-26
2022/04/10 04:00:47;;;;;;;0.20;0.20;;;;;;;18.89;38.89;101474.13;5127419;27;20047;-26
2022/04/10 04:03:13;;;;;;;0.20;0.20;;;;;;;18.88;38.92;101478.00;5134661;27;20077;-26
2022/04/10 04:05:39;;;;;;;0.20;0.20;;;;;;;18.88;39.20;101473.28;5098710;27;20073;-26
2022/04/10 04:08:05;;;;;;;0.20;0.20;;;;;;;18.88;38.81;101480.75;5126686;27;20455;-26
2022/04/10 04:10:32;;;;;;;0.20;0.20;;;;;;;18.88;39.01;101481.56;5126486;27;20398;-26
2022/04/10 04:12:58;;;;;;;0.20;0.20;;;;;;;18.89;38.93;101485.16;5123589;27;20150;-26
2022/04/10 04:15:24;;;;;;;0.20;0.20;;;;;;;18.86;38.85;101486.50;5128754;27;20102;-26
2022/04/10 04:17:49;;;;;;;0.20;0.20;;;;;;;18.86;38.90;101489.28;5128242;27;20442;-26
2022/04/10 04:20:15;;;;;;;0.20;0.20;;;;;;;18.88;38.93;101486.28;5108732;28;20047;-26
2022/04/10 04:22:41;;;;;;;0.20;0.20;;;;;;;18.89;39.22;101494.28;5129685;27;20046;-26
2022/04/10 04:25:06;;;;;;;0.20;0.20;;;;;;;18.89;38.88;101501.72;5124039;27;20044;-26
2022/04/10 04:27:32;;;;;;;0.20;0.20;;;;;;;18.88;38.93;101500.91;5121805;27;20048;-26
2022/04/10 04:29:59;;;;;;;0.20;0.20;;;;;;;18.88;39.13;101505.59;5087357;28;20485;-26
2022/04/10 04:32:24;;;;;;;0.20;0.20;;;;;;;18.87;39.04;101510.28;5104710;27;20081;-26
2022/04/10 04:34:50;;;;;;;0.20;0.20;;;;;;;18.88;39.12;101513.88;5129092;27;20358;-27
2022/04/10 04:37:15;;;;;;;0.20;0.20;;;;;;;18.87;38.75;101514.94;5122529;27;20371;-27
2022/04/10 04:39:41;;;;;;;0.20;0.20;;;;;;;18.88;39.21;101517.44;5124808;27;20039;-27
2022/04/10 04:42:07;;;;;;;0.20;0.20;;;;;;;18.87;38.86;101523.22;5126727;27;20054;-27
2022/04/10 04:44:33;;;;;;;0.20;0.20;;;;;;;18.87;39.12;101518.56;5122639;27;20055;-26
2022/04/10 04:46:58;;;;;;;0.20;0.20;;;;;;;18.87;39.22;101521.31;5123130;27;20052;-27
2022/04/10 04:49:25;;;;;;;0.20;0.20;;;;;;;18.86;38.94;101522.38;5124731;27;20039;-27
2022/04/10 04:51:57;;;;;;;0.20;0.20;;;;;;;18.87;38.79;101534.25;5095823;28;20047;-26
2022/04/10 04:54:23;;;;;;;0.20;0.20;;;;;;;18.85;38.90;101531.78;5110842;28;20050;-27
2022/04/10 04:56:48;;;;;;;0.20;0.20;;;;;;;18.86;39.10;101538.13;5126539;27;20054;-26
2022/04/10 04:59:14;;;;;;;0.20;0.20;;;;;;;18.86;39.25;101535.38;5128863;27;20047;-27
2022/04/10 05:01:41;;;;;;;0.20;0.20;;;;;;;18.86;38.70;101533.44;5090467;28;20046;-27
2022/04/10 05:04:07;;;;;;;0.20;0.20;;;;;;;18.86;39.08;101540.88;5122366;27;20505;-27
2022/04/10 05:06:33;;;;;;;0.20;0.20;;;;;;;18.85;38.87;101542.81;5126992;27;20040;-27
2022/04/10 05:08:59;;;;;;;0.20;0.20;;;;;;;18.86;38.96;101540.88;5122434;27;20134;-26
2022/04/10 05:11:25;;;;;;;0.20;0.20;;;;;;;18.84;38.95;101538.41;5127497;27;20055;-27
2022/04/10 05:13:50;;;;;;;0.20;0.20;;;;;;;18.84;38.77;101541.16;5124983;27;20047;-27
2022/04/10 05:16:16;;;;;;;0.20;0.20;;;;;;;18.85;38.75;101537.28;5127025;27;20108;-27
2022/04/10 05:18:42;;;;;;;0.20;0.20;;;;;;;18.84;38.67;101540.31;5126617;27;20046;-27
2022/04/10 05:21:08;;;;;;;0.20;0.20;;;;;;;18.84;38.74;101543.91;5124547;27;20393;-26
2022/04/10 05:23:33;;;;;;;0.20;0.20;;;;;;;18.84;38.70;101545.84;5120195;27;20047;-27
2022/04/10 05:25:59;;;;;;;0.20;0.20;;;;;;;18.84;39.00;101549.44;5112753;27;20047;-27
2022/04/10 05:28:25;;;;;;;0.20;0.20;;;;;;;18.85;38.97;101553.03;5123676;27;20447;-27
2022/04/10 05:30:50;;;;;;;0.30;0.30;;;;;;;18.84;39.15;101557.72;5102562;27;20101;-27
2022/04/10 05:33:17;;;;;;;0.20;0.20;;;;;;;18.85;39.05;101561.31;5126087;27;20039;-27
2022/04/10 05:35:42;;;;;;;0.20;0.20;;;;;;;18.85;39.15;101555.78;5123852;27;20398;-26
2022/04/10 05:38:08;;;;;;;0.20;0.20;;;;;;;18.83;38.78;101550.53;5123973;27;20044;-27
2022/04/10 05:40:34;;;;;;;0.20;0.20;;;;;;;18.84;38.78;101562.41;5121374;27;20118;-27
2022/04/10 05:43:00;;;;;;;0.20;0.20;;;;;;;18.85;39.13;101559.38;5129643;27;20057;-27
2022/04/10 05:45:26;;;;;;;0.20;0.20;;;;;;;18.84;39.17;101557.72;5125297;27;20105;-27
2022/04/10 05:47:52;;;;;;;0.20;0.20;;;;;;;18.83;38.73;101561.56;5124399;27;20134;-27
2022/04/10 05:50:18;;;;;;;0.20;0.20;;;;;;;18.85;39.02;101564.06;5122708;27;20035;-27
2022/04/10 05:52:46;;;;;;;0.20;0.20;;;;;;;18.85;39.15;101569.59;5124721;27;20062;-27
2022/04/10 05:55:13;;;;;;;0.20;0.20;;;;;;;18.83;38.75;101572.63;5121794;27;20066;-27
2022/04/10 05:57:39;;;;;;;0.20;0.20;;;;;;;18.83;38.95;101572.63;5103529;27;20071;-26
2022/04/10 06:00:08;;;;;;;0.20;0.20;;;;;;;18.83;38.81;101569.03;5105540;27;20067;-27
2022/04/10 06:02:34;;;;;;;0.20;0.20;;;;;;;18.82;38.81;101576.44;5109722;28;20446;-27
2022/04/10 06:04:59;;;;;;;0.20;0.20;;;;;;;18.82;38.61;101576.44;5119156;27;20099;-27
2022/04/10 06:07:25;;;;;;;0.20;0.20;;;;;;;18.81;38.97;101574.78;5123538;27;20066;-27
2022/04/10 06:09:51;;;;;;;0.20;0.20;;;;;;;18.81;38.79;101583.06;5108970;27;20070;-27
2022/04/10 06:12:17;;;;;;;0.20;0.20;;;;;;;18.82;39.01;101584.72;5130644;27;20055;-27
2022/04/10 06:14:42;;;;;;;0.20;0.20;;;;;;;18.83;39.17;101591.09;5131843;27;20039;-26
2022/04/10 06:17:08;;;;;;;0.20;0.20;;;;;;;18.82;39.07;101587.47;5127291;27;20047;-27
2022/04/10 06:19:34;;;;;;;0.20;0.20;;;;;;;18.82;39.25;101593.00;5123128;27;20043;-26
2022/04/10 06:22:00;;;;;;;0.20;0.20;;;;;;;18.81;38.75;101591.34;5129027;27;20043;-26
2022/04/10 06:24:27;;;;;;;0.20;0.20;;;;;;;18.82;39.28;101595.75;5124844;27;20047;-26
2022/04/10 06:26:53;;;;;;;0.20;0.20;;;;;;;18.80;39.01;101604.31;5122258;27;20495;-26
2022/04/10 06:29:20;;;;;;;0.20;0.20;;;;;;;18.80;38.81;101612.59;5125777;27;20073;-26
2022/04/10 06:31:46;;;;;;;0.20;0.20;;;;;;;18.83;39.17;101610.41;5089436;28;20066;-26
2022/04/10 06:34:12;;;;;;;0.20;0.20;;;;;;;18.82;39.09;101612.31;5120996;27;20136;-27
2022/04/10 06:36:38;;;;;;;0.20;0.20;;;;;;;18.82;38.82;101608.72;5102739;28;20448;-26
2022/04/10 06:39:10;;;;;;;0.20;0.20;;;;;;;18.81;39.17;101610.66;5102930;27;20046;-26
2022/04/10 06:41:36;;;;;;;0.20;0.20;;;;;;;18.82;39.06;101614.25;5123140;27;20039;-26
2022/04/10 06:44:02;;;;;;;0.20;0.20;;;;;;;18.81;38.97;101613.41;5122664;27;20043;-26
2022/04/10 06:46:28;;;;;;;0.20;0.20;;;;;;;18.82;39.01;101617.84;5129316;27;20138;-27
2022/04/10 06:48:54;;;;;;;0.20;0.20;;;;;;;18.82;39.10;101623.34;5121160;27;21215;-26
2022/04/10 06:51:21;;;;;;;0.20;0.20;;;;;;;18.79;38.72;101621.97;5122882;27;20583;-26
2022/04/10 06:53:48;;;;;;;0.20;0.20;;;;;;;18.81;39.23;101618.94;5106797;28;20074;-26
2022/04/10 06:56:14;;;;;;;0.20;0.20;;;;;;;18.81;39.10;101629.97;5127178;27;20086;-26
2022/04/10 06:58:39;;;;;;;0.20;0.20;;;;;;;18.79;38.99;101619.22;5126954;27;20534;-26
2022/04/10 07:01:05;;;;;;;0.20;0.20;;;;;;;18.80;38.91;101625.56;5129341;27;20035;-26
2022/04/10 07:03:31;;;;;;;0.20;0.20;;;;;;;18.80;38.72;101625.56;5104305;28;20050;-26
2022/04/10 07:05:57;;;;;;;0.20;0.20;;;;;;;18.81;39.06;101621.69;5125021;27;20047;-26
2022/04/10 07:08:23;;;;;;;0.20;0.20;;;;;;;18.78;38.86;101620.31;5119525;27;20051;-26
2022/04/10 07:10:48;;;;;;;0.20;0.20;;;;;;;18.80;38.82;101620.03;5121454;27;20462;-26
2022/04/10 07:13:17;;;;;;;0.20;0.20;;;;;;;18.79;39.12;101621.97;5117884;27;20459;-26
2022/04/10 07:15:45;;;;;;;0.20;0.20;;;;;;;18.79;38.88;101633.00;5119124;27;20370;-26
2022/04/10 07:18:11;;;;;;;0.20;0.20;;;;;;;18.80;39.25;101633.84;5123205;27;20074;-26
2022/04/10 07:20:36;;;;;;;0.20;0.20;;;;;;;18.80;39.03;101628.31;5121177;27;20551;-26
2022/04/10 07:25:48;;;;;;;0.20;0.20;;;;;;;18.78;38.95;101633.25;5113804;27;20043;-26
2022/04/10 07:28:14;;;;;;;0.20;0.20;;;;;;;18.78;38.83;101638.78;5124321;27;20429;-26
2022/04/10 07:30:40;;;;;;;0.20;0.20;;;;;;;18.80;38.95;101636.59;5126676;27;20047;-26
2022/04/10 07:33:07;;;;;;;0.20;0.20;;;;;;;18.79;38.86;101632.19;5129718;27;20043;-26
2022/04/10 07:35:40;;;;;;;0.20;0.20;;;;;;;18.79;38.92;101643.22;5128489;27;20134;-26
2022/04/10 07:38:06;;;;;;;0.20;0.20;;;;;;;18.77;39.05;101651.75;5108699;27;20138;-27
2022/04/10 07:40:33;;;;;;;0.20;0.20;;;;;;;18.78;38.99;101652.56;5126151;27;20393;-27
2022/04/10 07:42:59;;;;;;;0.20;0.20;;;;;;;18.79;38.86;101654.25;5129076;27;20105;-26
2022/04/10 07:48:11;;;;;;;0.20;0.20;;;;;;;18.77;38.76;101662.78;5109902;27;20396;-26
2022/04/10 07:50:36;;;;;;;0.20;0.20;;;;;;;18.78;38.99;101658.94;5126273;27;20039;-26
2022/04/10 07:53:02;;;;;;;0.20;0.20;;;;;;;18.78;39.17;101656.19;5132400;27;20043;-26
2022/04/10 07:55:28;;;;;;;0.20;0.20;;;;;;;18.78;39.01;101664.47;5127653;27;20047;-26
2022/04/10 07:57:54;;;;;;;0.20;0.20;;;;;;;18.78;38.75;101667.22;5126617;27;20730;-26
2022/04/10 08:00:20;;;;;;;0.20;0.20;;;;;;;18.79;39.17;101682.69;5127061;27;20047;-26
2022/04/10 08:02:46;;;;;;;0.20;0.20;;;;;;;18.78;38.77;101677.41;5099571;27;20074;-26
2022/04/10 08:05:13;;;;;;;0.20;0.20;;;;;;;18.79;39.18;101684.63;5124862;27;20050;-27
2022/04/10 08:07:40;;;;;;;0.20;0.20;;;;;;;18.79;39.03;101685.44;5127311;27;20169;-26
2022/04/10 08:10:06;;;;;;;0.20;0.20;;;;;;;18.78;39.16;101682.91;5111138;27;20211;-26
2022/04/10 08:12:32;;;;;;;0.20;0.20;;;;;;;18.78;38.86;101683.78;5132914;27;21463;-26
2022/04/10 08:14:58;;;;;;;0.20;0.20;;;;;;;18.78;39.16;101685.69;5125994;27;20054;-26
2022/04/10 08:17:23;;;;;;;0.20;0.20;;;;;;;18.78;39.01;101699.47;5101125;28;20055;-26
2022/04/10 08:19:49;;;;;;;0.20;0.20;;;;;;;18.78;38.95;101696.72;5128121;27;20039;-26
2022/04/10 08:22:15;;;;;;;0.20;0.20;;;;;;;18.78;39.13;101700.34;5125374;27;20041;-26
2022/04/10 08:24:40;;;;;;;0.20;0.20;;;;;;;18.78;39.27;101703.09;5127330;27;20047;-26
2022/04/10 08:27:06;;;;;;;0.20;0.20;;;;;;;18.77;39.26;101704.16;5128150;27;20132;-26
2022/04/10 08:29:32;;;;;;;0.20;0.20;;;;;;;18.77;38.68;101706.09;5125618;27;20047;-26
2022/04/10 08:31:57;;;;;;;0.20;0.20;;;;;;;18.77;38.90;101706.09;5123700;27;20393;-26
2022/04/10 08:34:23;;;;;;;0.20;0.20;;;;;;;18.77;39.07;101703.34;5122612;27;20047;-27
2022/04/10 08:36:49;;;;;;;0.20;0.20;;;;;;;18.78;39.01;101711.38;5129935;27;20051;-26
2022/04/10 08:39:15;;;;;;;0.20;0.20;;;;;;;18.77;38.86;101697.81;5123915;27;20514;-26
2022/04/10 08:41:41;;;;;;;0.20;0.20;;;;;;;18.77;38.91;101704.16;5126302;27;20047;-27
2022/04/10 08:44:07;;;;;;;0.20;0.20;;;;;;;18.76;38.59;101709.97;5130454;27;20128;-26
2022/04/10 08:46:33;;;;;;;0.20;0.20;;;;;;;18.77;38.79;101703.34;5112387;27;20055;-26
2022/04/10 08:48:59;;;;;;;0.20;0.20;;;;;;;18.77;38.80;101715.22;5093338;27;20492;-26
2022/04/10 08:51:26;;;;;;;0.20;0.20;;;;;;;18.76;39.20;101713.53;5134659;27;20071;-27
2022/04/10 08:53:54;;;;;;;0.20;0.20;;;;;;;18.77;39.21;101712.44;5106171;27;20102;-27
2022/04/10 08:56:20;;;;;;;0.20;0.20;;;;;;;18.78;39.21;101716.03;5127548;27;20074;-27
2022/04/10 08:58:46;;;;;;;0.20;0.20;;;;;;;18.78;39.00;101713.28;5107005;27;20066;-26
2022/04/10 09:01:11;;;;;;;0.20;0.20;;;;;;;18.78;38.47;101724.31;5129319;27;20508;-26
2022/04/10 09:03:38;;;;;;;0.20;0.20;;;;;;;18.78;38.99;101724.31;5128043;27;20402;-26
2022/04/10 09:06:06;;;;;;;0.20;0.20;;;;;;;18.75;38.91;101717.41;5114307;27;20438;-26
2022/04/10 09:08:32;;;;;;;0.20;0.20;;;;;;;18.76;39.20;101716.31;5128531;27;20464;-26
2022/04/10 09:11:02;;;;;;;0.20;0.20;;;;;;;18.76;39.03;101727.34;5106723;27;20537;-26
2022/04/10 09:13:33;;;;;;;0.20;0.20;;;;;;;18.76;38.86;101721.81;5125409;27;20067;-26
2022/04/10 09:16:02;;;;;;;0.20;0.20;;;;;;;18.75;38.85;101722.94;5112330;27;20051;-26
2022/04/10 09:18:29;;;;;;;0.20;0.20;;;;;;;18.76;39.00;101726.50;5110876;28;20043;-26
2022/04/10 09:21:09;;;;;;;0.20;0.20;;;;;;;18.75;38.93;101722.09;5125941;27;20076;-26
2022/04/10 09:23:35;;;;;;;0.20;0.20;;;;;;;18.73;38.81;101711.28;5120345;27;20078;-26
2022/04/10 09:26:01;;;;;;;0.20;0.20;;;;;;;18.76;38.76;101727.34;5127190;27;20096;-26
2022/04/10 09:28:50;;;;;;;0.20;0.20;;;;;;;18.75;38.96;101722.09;5104218;27;20545;-26
2022/04/10 09:31:31;;;;;;;0.20;0.20;;;;;;;18.73;38.63;101722.34;5126660;27;20080;-26
2022/04/10 09:34:01;;;;;;;0.30;0.30;;;;;;;18.76;39.21;101716.31;5105465;28;20530;-26
2022/04/10 09:36:35;;;;;;;0.20;0.20;;;;;;;18.75;38.95;101720.16;5125126;27;20085;-26
2022/04/10 09:39:03;;;;;;;0.20;0.20;;;;;;;18.75;38.75;101724.84;5124800;27;20072;-26
2022/04/10 09:41:29;;;;;;;0.20;0.20;;;;;;;18.75;39.02;101713.81;5112805;27;20077;-26
2022/04/10 09:43:59;;;;;;;0.20;0.20;;;;;;;18.75;38.93;101720.16;5123713;27;20103;-26
2022/04/10 09:46:25;;;;;;;0.20;0.20;;;;;;;18.75;38.95;101720.16;5121914;27;20062;-26
2022/04/10 09:48:50;;;;;;;0.20;0.20;;;;;;;18.75;38.81;101722.09;5122391;27;20129;-26
2022/04/10 09:51:16;;;;;;;0.20;0.20;;;;;;;18.74;38.97;101718.50;5127575;27;20043;-26
2022/04/10 09:54:01;;;;;;;0.20;0.20;;;;;;;18.75;39.42;101717.41;5118375;27;20046;-26
2022/04/10 09:56:27;;;;;;;0.20;0.20;;;;;;;18.75;38.80;101717.41;5123370;27;20085;-26
2022/04/10 09:58:56;;;;;;;0.20;0.20;;;;;;;18.74;38.66;101721.25;5125072;27;20089;-26
2022/04/10 10:01:21;;;;;;;;;;;;;;;18.75;39.13;101719.34;5108742;28;20100;-27
2022/04/10 10:03:47;;;;;;;0.20;0.20;;;;;;;18.74;38.80;101720.44;5125227;27;19995;-27
2022/04/10 10:06:13;;;;;;;0.20;0.20;;;;;;;18.74;39.01;101725.97;5122559;27;20043;-27
2022/04/10 10:08:39;;;;;;;0.28;0.28;;;;;;;18.74;38.93;101720.44;5121896;27;20418;-27
2022/04/10 10:11:05;;;;;;;0.20;0.20;;;;;;;18.74;38.90;101714.91;5127414;27;20477;-27
2022/04/10 10:13:31;;;;;;;0.20;0.20;;;;;;;18.73;38.79;101719.56;5124586;27;20050;-26
2022/04/10 10:15:56;;;;;;;0.20;0.20;;;;;;;18.74;38.85;101720.44;5129015;27;20043;-27
2022/04/10 10:18:24;;;;;;;0.20;0.20;;;;;;;18.75;39.09;101717.41;5117074;27;20382;-27
2022/04/10 10:20:50;;;;;;;0.20;0.20;;;;;;;18.75;39.23;101716.56;5112255;27;20034;-27
2022/04/10 10:23:18;;;;;;;0.20;0.20;;;;;;;18.74;38.67;101714.91;5126103;27;20542;-27
2022/04/10 10:26:15;;;;;;;0.20;0.20;;;;;;;18.73;38.71;101711.28;5098071;27;20130;-27
2022/04/10 10:29:15;;;;;;;0.20;0.20;;;;;;;18.71;38.63;101704.38;5105661;27;20478;-27
2022/04/10 10:32:18;;;;;;;0.20;0.20;;;;;;;18.72;38.63;101712.41;5109159;27;20146;-26
2022/04/10 10:34:44;;;;;;;0.20;0.20;;;;;;;18.75;38.81;101713.81;5115105;27;20189;-26
2022/04/10 10:37:12;;;;;;;0.20;0.20;;;;;;;18.74;38.87;101713.00;5125552;27;20072;-26
2022/04/10 10:39:45;;;;;;;;;;;;;;;18.75;39.12;101713.81;5123043;27;20146;-27
2022/04/10 10:42:12;;;;;;;0.20;0.20;;;;;;;18.73;38.86;101704.94;5103711;28;20296;-26
2022/04/10 10:47:22;;;;;;;0.20;0.20;;;;;;;18.73;38.75;101708.53;5163173;27;20116;-23
2022/04/10 10:49:49;;;;;;;0.20;0.20;;;;;;;18.74;38.82;101714.91;5144830;27;20042;-23
2022/04/10 10:52:15;;;;;;;0.20;0.20;;;;;;;18.73;38.62;101711.28;5129175;27;20504;-23
2022/04/10 10:54:44;;;;;;;0.20;0.20;;;;;;;18.74;39.10;101710.22;5128852;27;20093;-25
2022/04/10 10:57:38;;;;;;;0.20;0.20;;;;;;;18.73;38.94;101715.97;5131002;27;20692;-24
2022/04/10 11:00:09;;;;;;;0.20;0.20;;;;;;;18.73;39.10;101718.75;5134376;27;20140;-24
2022/04/10 11:02:36;;;;;;;0.20;0.20;;;;;;;18.73;39.13;101711.28;5115490;27;20043;-24
2022/04/10 11:05:34;;;;;;;0.20;0.20;;;;;;;18.74;39.14;101717.69;5143319;27;20181;-24
2022/04/10 11:08:04;;;;;;;0.20;0.20;;;;;;;18.73;39.08;101710.47;5129651;27;20035;-24
2022/04/10 11:10:31;;;;;;;0.20;0.20;;;;;;;18.74;39.27;101710.22;5144569;27;20477;-23
2022/04/10 11:13:02;;;;;;;0.20;0.20;;;;;;;18.73;38.76;101718.75;5145063;27;20070;-24
2022/04/10 11:15:30;;;;;;;0.20;0.20;;;;;;;18.73;38.68;101719.56;5146605;27;20075;-24
2022/04/10 11:21:18;;;;;;;0.20;0.20;;;;;;;18.72;38.81;101712.41;5160435;27;20117;-28
2022/04/10 11:23:52;;;;;;;0.20;0.20;;;;;;;18.73;38.98;101716.81;5130969;27;20046;-27
2022/04/10 11:26:19;;;;;;;0.20;0.20;;;;;;;18.72;38.83;101714.31;5163164;27;20472;-28
2022/04/10 11:29:04;;;;;;;0.20;0.20;;;;;;;18.73;38.97;101714.06;5159273;27;20179;-29
2022/04/10 11:31:31;;;;;;;0.20;0.20;;;;;;;18.74;39.13;101703.88;5136244;27;20042;-29
2022/04/10 11:34:14;;;;;;;0.20;0.20;;;;;;;18.73;38.89;101703.00;5142687;27;20089;-27
2022/04/10 11:39:26;;;;;;;0.20;0.20;;;;;;;18.73;38.64;101694.75;5177353;27;20202;-28
2022/04/10 11:41:53;;;;;;;0.20;0.20;;;;;;;18.73;38.81;101700.25;5149293;27;20590;-27